sensor_id;sensor_type;location;lat;lon;timestamp;temperature;humidity
15386;DHT22;7791;47.246;9.648;2022-10-16T00:01:48;15.40;99.90
15386;DHT22;7791;47.246;9.648;2022-10-16T00:04:19;15.40;99.90
15386;DHT22;7791;47.246;9.648;2022-10-16T00:06:45;15.40;99.90
15386;DHT22;7791;47.246;9.648;2022-10-16T00:09:15;15.40;99.90
15386;DHT22;7791;47.246;9.648;2022-10-16T00:11:42;15.30;99.90
15386;DHT22;7791;47.246;9.648;2022-10-16T00:14:10;15.30;99.90
15386;DHT22;7791;47.246;9.648;2022-10-16T00:16:36;15.30;99.90
15386;DHT22;7791;47.246;9.648;2022-10-16T00:19:09;15.30;99.90
15386;DHT22;7791;47.246;9.648;2022-10-16T00:21:35;15.30;99.90
15386;DHT22;7791;47.246;9.648;2022-10-16T00:24:03;15.20;99.90
15386;DHT22;7791;47.246;9.648;2022-10-16T00:26:32;15.20;99.90
15386;DHT22;7791;47.246;9.648;2022-10-16T00:28:58;15.20;99.90
15386;DHT22;7791;47.246;9.648;2022-10-16T00:31:25;15.10;99.90
15386;DHT22;7791;47.246;9.648;2022-10-16T00:33:51;15.10;99.90
15386;DHT22;7791;47.246;9.648;2022-10-16T00:36:19;15.20;99.90
15386;DHT22;7791;47.246;9.648;2022-10-16T00:38:46;15.10;99.90
15386;DHT22;7791;47.246;9.648;2022-10-16T00:41:14;15.00;99.90
15386;DHT22;7791;47.246;9.648;2022-10-16T00:43:44;15.00;99.90
15386;DHT22;7791;47.246;9.648;2022-10-16T00:46:19;14.90;99.90
15386;DHT22;7791;47.246;9.648;2022-10-16T00:48:51;14.90;99.90
15386;DHT22;7791;47.246;9.648;2022-10-16T00:51:21;14.90;99.90
15386;DHT22;7791;47.246;9.648;2022-10-16T00:53:49;14.90;99.90
15386;DHT22;7791;47.246;9.648;2022-10-16T00:56:16;14.90;99.90
15386;DHT22;7791;47.246;9.648;2022-10-16T00:58:43;14.90;99.90
15386;DHT22;7791;47.246;9.648;2022-10-16T01:01:09;15.00;99.90
15386;DHT22;7791;47.246;9.648;2022-10-16T01:03:45;14.90;99.90
15386;DHT22;7791;47.246;9.648;2022-10-16T01:06:28;15.00;99.90
15386;DHT22;7791;47.246;9.648;2022-10-16T01:09:09;15.00;99.90
15386;DHT22;7791;47.246;9.648;2022-10-16T01:11:52;14.90;99.90
15386;DHT22;7791;47.246;9.648;2022-10-16T01:14:32;14.80;99.90
15386;DHT22;7791;47.246;9.648;2022-10-16T01:17:06;14.80;99.90
15386;DHT22;7791;47.246;9.648;2022-10-16T01:22:36;14.80;99.90
15386;DHT22;7791;47.246;9.648;2022-10-16T01:25:09;14.90;99.90
15386;DHT22;7791;47.246;9.648;2022-10-16T01:27:40;15.00;99.90
15386;DHT22;7791;47.246;9.648;2022-10-16T01:30:12;15.00;99.90
15386;DHT22;7791;47.246;9.648;2022-10-16T01:32:42;15.10;99.90
15386;DHT22;7791;47.246;9.648;2022-10-16T01:35:13;15.20;99.90
15386;DHT22;7791;47.246;9.648;2022-10-16T01:37:42;15.20;99.90
15386;DHT22;7791;47.246;9.648;2022-10-16T01:40:12;15.20;99.90
15386;DHT22;7791;47.246;9.648;2022-10-16T01:42:42;15.20;99.90
15386;DHT22;7791;47.246;9.648;2022-10-16T01:45:13;15.10;99.90
15386;DHT22;7791;47.246;9.648;2022-10-16T01:47:40;15.10;99.90
15386;DHT22;7791;47.246;9.648;2022-10-16T01:50:13;15.00;99.90
15386;DHT22;7791;47.246;9.648;2022-10-16T01:52:45;15.00;99.90
15386;DHT22;7791;47.246;9.648;2022-10-16T01:55:15;15.20;99.90
15386;DHT22;7791;47.246;9.648;2022-10-16T01:57:48;15.20;99.90
15386;DHT22;7791;47.246;9.648;2022-10-16T02:00:17;15.20;99.90
15386;DHT22;7791;47.246;9.648;2022-10-16T02:02:50;15.20;99.90
15386;DHT22;7791;47.246;9.648;2022-10-16T02:05:24;15.30;99.90
15386;DHT22;7791;47.246;9.648;2022-10-16T02:07:54;15.20;99.90
15386;DHT22;7791;47.246;9.648;2022-10-16T02:10:21;15.20;99.90
15386;DHT22;7791;47.246;9.648;2022-10-16T02:12:50;15.20;99.90
15386;DHT22;7791;47.246;9.648;2022-10-16T02:15:19;15.20;99.90
15386;DHT22;7791;47.246;9.648;2022-10-16T02:17:45;15.20;99.90
15386;DHT22;7791;47.246;9.648;2022-10-16T02:20:12;15.30;99.90
15386;DHT22;7791;47.246;9.648;2022-10-16T02:22:40;15.30;99.90
15386;DHT22;7791;47.246;9.648;2022-10-16T02:25:10;15.30;99.90
15386;DHT22;7791;47.246;9.648;2022-10-16T02:27:42;15.30;99.90
15386;DHT22;7791;47.246;9.648;2022-10-16T02:30:23;15.30;99.90
15386;DHT22;7791;47.246;9.648;2022-10-16T02:32:53;15.20;99.90
15386;DHT22;7791;47.246;9.648;2022-10-16T02:35:21;15.20;99.90
15386;DHT22;7791;47.246;9.648;2022-10-16T02:37:49;15.10;99.90
15386;DHT22;7791;47.246;9.648;2022-10-16T02:40:18;15.10;99.90
15386;DHT22;7791;47.246;9.648;2022-10-16T02:42:50;15.10;99.90
15386;DHT22;7791;47.246;9.648;2022-10-16T02:45:20;15.10;99.90
15386;DHT22;7791;47.246;9.648;2022-10-16T02:47:46;15.10;99.90
15386;DHT22;7791;47.246;9.648;2022-10-16T02:50:13;14.90;99.90
15386;DHT22;7791;47.246;9.648;2022-10-16T02:52:40;14.90;99.90
15386;DHT22;7791;47.246;9.648;2022-10-16T02:55:20;14.90;99.90
15386;DHT22;7791;47.246;9.648;2022-10-16T02:57:46;14.90;99.90
15386;DHT22;7791;47.246;9.648;2022-10-16T03:00:14;14.80;99.90
15386;DHT22;7791;47.246;9.648;2022-10-16T03:02:42;14.80;99.90
15386;DHT22;7791;47.246;9.648;2022-10-16T03:05:09;14.60;99.90
15386;DHT22;7791;47.246;9.648;2022-10-16T03:07:35;14.50;99.90
15386;DHT22;7791;47.246;9.648;2022-10-16T03:10:26;14.40;99.90
15386;DHT22;7791;47.246;9.648;2022-10-16T03:12:52;14.30;99.90
15386;DHT22;7791;47.246;9.648;2022-10-16T03:15:19;14.20;99.90
15386;DHT22;7791;47.246;9.648;2022-10-16T03:17:46;14.10;99.90
15386;DHT22;7791;47.246;9.648;2022-10-16T03:20:12;14.20;99.90
15386;DHT22;7791;47.246;9.648;2022-10-16T03:22:40;14.20;99.90
15386;DHT22;7791;47.246;9.648;2022-10-16T03:25:07;14.20;99.90
15386;DHT22;7791;47.246;9.648;2022-10-16T03:27:33;14.20;99.90
15386;DHT22;7791;47.246;9.648;2022-10-16T03:29:59;14.30;99.90
15386;DHT22;7791;47.246;9.648;2022-10-16T03:32:25;14.30;99.90
15386;DHT22;7791;47.246;9.648;2022-10-16T03:34:53;14.30;99.90
15386;DHT22;7791;47.246;9.648;2022-10-16T03:37:19;14.30;99.90
15386;DHT22;7791;47.246;9.648;2022-10-16T03:39:47;14.30;99.90
15386;DHT22;7791;47.246;9.648;2022-10-16T03:42:12;14.30;99.90
15386;DHT22;7791;47.246;9.648;2022-10-16T03:44:39;14.30;99.90
15386;DHT22;7791;47.246;9.648;2022-10-16T03:47:09;14.40;99.90
15386;DHT22;7791;47.246;9.648;2022-10-16T03:49:37;14.40;99.90
15386;DHT22;7791;47.246;9.648;2022-10-16T03:52:05;14.40;99.90
15386;DHT22;7791;47.246;9.648;2022-10-16T03:54:32;14.40;99.90
15386;DHT22;7791;47.246;9.648;2022-10-16T03:57:13;14.40;99.90
15386;DHT22;7791;47.246;9.648;2022-10-16T03:59:40;14.50;99.90
15386;DHT22;7791;47.246;9.648;2022-10-16T04:02:06;14.50;99.90
15386;DHT22;7791;47.246;9.648;2022-10-16T04:04:32;14.50;99.90
15386;DHT22;7791;47.246;9.648;2022-10-16T04:06:59;14.50;99.90
15386;DHT22;7791;47.246;9.648;2022-10-16T04:09:29;14.60;99.90
15386;DHT22;7791;47.246;9.648;2022-10-16T04:11:58;14.60;99.90
15386;DHT22;7791;47.246;9.648;2022-10-16T04:14:24;14.60;99.90
15386;DHT22;7791;47.246;9.648;2022-10-16T04:16:50;14.50;99.90
15386;DHT22;7791;47.246;9.648;2022-10-16T04:19:16;14.40;99.90
15386;DHT22;7791;47.246;9.648;2022-10-16T04:21:42;14.30;99.90
15386;DHT22;7791;47.246;9.648;2022-10-16T04:24:09;14.30;99.90
15386;DHT22;7791;47.246;9.648;2022-10-16T04:27:01;14.20;99.90
15386;DHT22;7791;47.246;9.648;2022-10-16T04:29:28;14.10;99.90
15386;DHT22;7791;47.246;9.648;2022-10-16T04:31:54;14.00;99.90
15386;DHT22;7791;47.246;9.648;2022-10-16T04:34:20;13.90;99.90
15386;DHT22;7791;47.246;9.648;2022-10-16T04:36:48;13.80;99.90
15386;DHT22;7791;47.246;9.648;2022-10-16T04:39:17;13.80;99.90
15386;DHT22;7791;47.246;9.648;2022-10-16T04:42:14;13.80;99.90
15386;DHT22;7791;47.246;9.648;2022-10-16T04:44:42;13.80;99.90
15386;DHT22;7791;47.246;9.648;2022-10-16T04:47:08;13.70;99.90
15386;DHT22;7791;47.246;9.648;2022-10-16T04:49:34;13.60;99.90
15386;DHT22;7791;47.246;9.648;2022-10-16T04:52:00;13.50;99.90
15386;DHT22;7791;47.246;9.648;2022-10-16T04:54:26;13.40;99.90
15386;DHT22;7791;47.246;9.648;2022-10-16T04:57:01;13.30;99.90
15386;DHT22;7791;47.246;9.648;2022-10-16T04:59:35;13.20;99.90
15386;DHT22;7791;47.246;9.648;2022-10-16T05:02:04;13.10;99.90
15386;DHT22;7791;47.246;9.648;2022-10-16T05:04:33;13.00;99.90
15386;DHT22;7791;47.246;9.648;2022-10-16T05:07:03;13.00;99.90
15386;DHT22;7791;47.246;9.648;2022-10-16T05:09:29;12.90;99.90
15386;DHT22;7791;47.246;9.648;2022-10-16T05:11:58;12.80;99.90
15386;DHT22;7791;47.246;9.648;2022-10-16T05:14:23;12.70;99.90
15386;DHT22;7791;47.246;9.648;2022-10-16T05:16:51;12.60;99.90
15386;DHT22;7791;47.246;9.648;2022-10-16T05:19:17;12.50;99.90
15386;DHT22;7791;47.246;9.648;2022-10-16T05:21:43;12.50;99.90
15386;DHT22;7791;47.246;9.648;2022-10-16T05:24:09;12.50;99.90
15386;DHT22;7791;47.246;9.648;2022-10-16T05:26:35;12.60;99.90
15386;DHT22;7791;47.246;9.648;2022-10-16T05:29:07;12.70;99.90
15386;DHT22;7791;47.246;9.648;2022-10-16T05:31:35;12.70;99.90
15386;DHT22;7791;47.246;9.648;2022-10-16T05:34:02;12.70;99.90
15386;DHT22;7791;47.246;9.648;2022-10-16T05:36:29;12.70;99.90
15386;DHT22;7791;47.246;9.648;2022-10-16T05:38:55;12.80;99.90
15386;DHT22;7791;47.246;9.648;2022-10-16T05:41:22;12.80;99.90
15386;DHT22;7791;47.246;9.648;2022-10-16T05:43:48;12.90;99.90
15386;DHT22;7791;47.246;9.648;2022-10-16T05:46:16;13.00;99.90
15386;DHT22;7791;47.246;9.648;2022-10-16T05:48:42;12.70;99.90
15386;DHT22;7791;47.246;9.648;2022-10-16T05:51:12;12.50;99.90
15386;DHT22;7791;47.246;9.648;2022-10-16T05:53:39;12.50;99.90
15386;DHT22;7791;47.246;9.648;2022-10-16T05:56:06;12.60;99.90
15386;DHT22;7791;47.246;9.648;2022-10-16T05:58:34;12.70;99.90
15386;DHT22;7791;47.246;9.648;2022-10-16T06:01:04;12.80;99.90
15386;DHT22;7791;47.246;9.648;2022-10-16T06:03:31;12.80;99.90
15386;DHT22;7791;47.246;9.648;2022-10-16T06:05:57;12.80;99.90
15386;DHT22;7791;47.246;9.648;2022-10-16T06:08:24;12.80;99.90
15386;DHT22;7791;47.246;9.648;2022-10-16T06:11:00;12.90;99.90
15386;DHT22;7791;47.246;9.648;2022-10-16T06:13:31;12.90;99.90
15386;DHT22;7791;47.246;9.648;2022-10-16T06:15:58;13.00;99.90
15386;DHT22;7791;47.246;9.648;2022-10-16T06:18:26;13.10;99.90
15386;DHT22;7791;47.246;9.648;2022-10-16T06:20:52;13.20;99.90
15386;DHT22;7791;47.246;9.648;2022-10-16T06:23:18;13.30;99.90
15386;DHT22;7791;47.246;9.648;2022-10-16T06:25:45;13.20;99.90
15386;DHT22;7791;47.246;9.648;2022-10-16T06:28:15;13.30;99.90
15386;DHT22;7791;47.246;9.648;2022-10-16T06:30:42;13.50;99.90
15386;DHT22;7791;47.246;9.648;2022-10-16T06:33:13;13.60;99.90
15386;DHT22;7791;47.246;9.648;2022-10-16T06:35:41;13.70;99.90
15386;DHT22;7791;47.246;9.648;2022-10-16T06:38:08;13.80;99.90
15386;DHT22;7791;47.246;9.648;2022-10-16T06:40:34;14.00;99.90
15386;DHT22;7791;47.246;9.648;2022-10-16T06:43:02;14.00;99.90
15386;DHT22;7791;47.246;9.648;2022-10-16T06:45:27;14.10;99.90
15386;DHT22;7791;47.246;9.648;2022-10-16T06:47:54;14.20;99.90
15386;DHT22;7791;47.246;9.648;2022-10-16T06:50:23;14.20;99.90
15386;DHT22;7791;47.246;9.648;2022-10-16T06:52:51;14.50;99.90
15386;DHT22;7791;47.246;9.648;2022-10-16T06:55:21;14.80;99.90
15386;DHT22;7791;47.246;9.648;2022-10-16T06:57:47;15.00;99.90
15386;DHT22;7791;47.246;9.648;2022-10-16T07:00:20;15.30;99.90
15386;DHT22;7791;47.246;9.648;2022-10-16T07:02:52;15.60;99.90
15386;DHT22;7791;47.246;9.648;2022-10-16T07:05:19;15.80;99.90
15386;DHT22;7791;47.246;9.648;2022-10-16T07:07:50;16.10;99.90
15386;DHT22;7791;47.246;9.648;2022-10-16T07:10:17;16.30;99.90
15386;DHT22;7791;47.246;9.648;2022-10-16T07:12:45;16.50;99.90
15386;DHT22;7791;47.246;9.648;2022-10-16T07:15:11;17.70;99.90
15386;DHT22;7791;47.246;9.648;2022-10-16T07:17:39;18.80;99.90
15386;DHT22;7791;47.246;9.648;2022-10-16T07:20:06;18.90;99.90
15386;DHT22;7791;47.246;9.648;2022-10-16T07:22:32;19.10;99.90
15386;DHT22;7791;47.246;9.648;2022-10-16T07:24:58;18.90;99.90
15386;DHT22;7791;47.246;9.648;2022-10-16T07:27:32;18.90;99.90
15386;DHT22;7791;47.246;9.648;2022-10-16T07:30:05;19.10;99.90
15386;DHT22;7791;47.246;9.648;2022-10-16T07:32:31;18.90;99.90
15386;DHT22;7791;47.246;9.648;2022-10-16T07:34:59;18.70;99.90
15386;DHT22;7791;47.246;9.648;2022-10-16T07:37:27;18.70;99.90
15386;DHT22;7791;47.246;9.648;2022-10-16T07:39:54;19.80;99.90
15386;DHT22;7791;47.246;9.648;2022-10-16T07:42:20;21.10;99.90
15386;DHT22;7791;47.246;9.648;2022-10-16T07:44:46;21.60;99.90
15386;DHT22;7791;47.246;9.648;2022-10-16T07:47:14;21.80;99.90
15386;DHT22;7791;47.246;9.648;2022-10-16T07:49:40;22.70;99.90
15386;DHT22;7791;47.246;9.648;2022-10-16T07:52:08;23.70;99.90
15386;DHT22;7791;47.246;9.648;2022-10-16T07:54:34;25.10;99.90
15386;DHT22;7791;47.246;9.648;2022-10-16T07:57:02;26.10;99.90
15386;DHT22;7791;47.246;9.648;2022-10-16T07:59:28;26.40;99.90
15386;DHT22;7791;47.246;9.648;2022-10-16T08:01:54;26.80;99.90
15386;DHT22;7791;47.246;9.648;2022-10-16T08:04:20;26.30;99.90
15386;DHT22;7791;47.246;9.648;2022-10-16T08:06:46;25.60;99.90
15386;DHT22;7791;47.246;9.648;2022-10-16T08:09:14;24.30;99.90
15386;DHT22;7791;47.246;9.648;2022-10-16T08:11:44;23.00;99.90
15386;DHT22;7791;47.246;9.648;2022-10-16T08:14:11;22.10;99.90
15386;DHT22;7791;47.246;9.648;2022-10-16T08:23:13;21.80;99.90
15386;DHT22;7791;47.246;9.648;2022-10-16T08:25:41;22.50;99.90
15386;DHT22;7791;47.246;9.648;2022-10-16T08:28:08;23.90;99.90
15386;DHT22;7791;47.246;9.648;2022-10-16T08:30:36;24.60;99.90
15386;DHT22;7791;47.246;9.648;2022-10-16T08:33:03;25.40;99.90
15386;DHT22;7791;47.246;9.648;2022-10-16T08:35:29;25.90;99.90
15386;DHT22;7791;47.246;9.648;2022-10-16T08:37:59;26.50;99.90
15386;DHT22;7791;47.246;9.648;2022-10-16T08:40:26;26.90;99.90
15386;DHT22;7791;47.246;9.648;2022-10-16T08:43:17;27.20;99.90
15386;DHT22;7791;47.246;9.648;2022-10-16T08:46:09;26.90;99.90
15386;DHT22;7791;47.246;9.648;2022-10-16T08:49:11;26.80;99.90
15386;DHT22;7791;47.246;9.648;2022-10-16T08:51:37;26.90;99.90
15386;DHT22;7791;47.246;9.648;2022-10-16T08:54:21;27.30;99.90
15386;DHT22;7791;47.246;9.648;2022-10-16T08:56:48;27.80;99.90
15386;DHT22;7791;47.246;9.648;2022-10-16T08:59:17;27.90;99.90
15386;DHT22;7791;47.246;9.648;2022-10-16T09:01:45;28.10;99.90
15386;DHT22;7791;47.246;9.648;2022-10-16T09:04:40;28.50;99.90
15386;DHT22;7791;47.246;9.648;2022-10-16T09:07:13;28.90;99.90
15386;DHT22;7791;47.246;9.648;2022-10-16T09:10:02;29.20;99.90
15386;DHT22;7791;47.246;9.648;2022-10-16T09:12:38;30.00;98.90
15386;DHT22;7791;47.246;9.648;2022-10-16T09:15:22;30.10;98.10
15386;DHT22;7791;47.246;9.648;2022-10-16T09:17:58;30.50;97.30
15386;DHT22;7791;47.246;9.648;2022-10-16T09:26:31;30.00;98.50
15386;DHT22;7791;47.246;9.648;2022-10-16T09:28:57;30.20;97.70
15386;DHT22;7791;47.246;9.648;2022-10-16T09:31:24;30.50;97.40
15386;DHT22;7791;47.246;9.648;2022-10-16T09:33:53;30.70;96.20
15386;DHT22;7791;47.246;9.648;2022-10-16T09:36:53;30.70;95.00
15386;DHT22;7791;47.246;9.648;2022-10-16T09:39:21;30.50;95.20
15386;DHT22;7791;47.246;9.648;2022-10-16T09:41:47;30.80;95.90
15386;DHT22;7791;47.246;9.648;2022-10-16T09:44:19;31.10;95.80
15386;DHT22;7791;47.246;9.648;2022-10-16T09:46:47;31.40;95.50
15386;DHT22;7791;47.246;9.648;2022-10-16T09:52:29;31.90;94.10
15386;DHT22;7791;47.246;9.648;2022-10-16T09:54:58;32.30;93.10
15386;DHT22;7791;47.246;9.648;2022-10-16T09:57:25;32.70;93.40
15386;DHT22;7791;47.246;9.648;2022-10-16T09:59:54;32.70;92.40
15386;DHT22;7791;47.246;9.648;2022-10-16T10:02:30;33.00;92.40
15386;DHT22;7791;47.246;9.648;2022-10-16T10:04:58;33.00;91.10
15386;DHT22;7791;47.246;9.648;2022-10-16T10:10:32;32.40;91.70
15386;DHT22;7791;47.246;9.648;2022-10-16T10:13:17;32.60;90.90
15386;DHT22;7791;47.246;9.648;2022-10-16T10:15:47;33.20;90.60
15386;DHT22;7791;47.246;9.648;2022-10-16T10:18:20;33.00;90.00
15386;DHT22;7791;47.246;9.648;2022-10-16T10:21:04;33.20;90.10
15386;DHT22;7791;47.246;9.648;2022-10-16T10:23:31;33.10;88.60
15386;DHT22;7791;47.246;9.648;2022-10-16T10:26:01;32.50;90.80
15386;DHT22;7791;47.246;9.648;2022-10-16T10:28:47;32.50;90.70
15386;DHT22;7791;47.246;9.648;2022-10-16T10:31:24;32.90;87.90
15386;DHT22;7791;47.246;9.648;2022-10-16T10:33:59;33.10;87.20
15386;DHT22;7791;47.246;9.648;2022-10-16T10:39:59;33.50;85.90
15386;DHT22;7791;47.246;9.648;2022-10-16T10:42:34;33.90;86.40
15386;DHT22;7791;47.246;9.648;2022-10-16T10:45:23;33.60;85.20
15386;DHT22;7791;47.246;9.648;2022-10-16T10:48:06;33.20;84.60
15386;DHT22;7791;47.246;9.648;2022-10-16T10:50:43;32.90;86.40
15386;DHT22;7791;47.246;9.648;2022-10-16T10:59:42;34.30;81.10
15386;DHT22;7791;47.246;9.648;2022-10-16T11:02:20;34.90;79.30
15386;DHT22;7791;47.246;9.648;2022-10-16T11:10:57;35.00;81.40
15386;DHT22;7791;47.246;9.648;2022-10-16T11:13:31;34.90;80.10
15386;DHT22;7791;47.246;9.648;2022-10-16T11:16:00;34.80;81.90
15386;DHT22;7791;47.246;9.648;2022-10-16T11:18:38;35.00;78.70
15386;DHT22;7791;47.246;9.648;2022-10-16T11:21:13;35.00;79.40
15386;DHT22;7791;47.246;9.648;2022-10-16T11:23:43;34.50;81.80
15386;DHT22;7791;47.246;9.648;2022-10-16T11:26:17;33.10;80.80
15386;DHT22;7791;47.246;9.648;2022-10-16T11:28:47;31.30;85.40
15386;DHT22;7791;47.246;9.648;2022-10-16T11:31:17;29.80;89.60
15386;DHT22;7791;47.246;9.648;2022-10-16T11:33:50;29.30;90.00
15386;DHT22;7791;47.246;9.648;2022-10-16T11:36:19;28.70;91.30
15386;DHT22;7791;47.246;9.648;2022-10-16T11:42:07;27.10;92.70
15386;DHT22;7791;47.246;9.648;2022-10-16T11:44:50;26.30;93.80
15386;DHT22;7791;47.246;9.648;2022-10-16T11:47:27;26.30;94.10
15386;DHT22;7791;47.246;9.648;2022-10-16T11:50:00;26.50;93.20
15386;DHT22;7791;47.246;9.648;2022-10-16T11:52:33;26.50;93.60
15386;DHT22;7791;47.246;9.648;2022-10-16T12:10:23;27.30;92.10
15386;DHT22;7791;47.246;9.648;2022-10-16T12:12:50;27.30;92.30
15386;DHT22;7791;47.246;9.648;2022-10-16T12:15:23;27.20;92.00
15386;DHT22;7791;47.246;9.648;2022-10-16T12:17:51;27.40;92.60
15386;DHT22;7791;47.246;9.648;2022-10-16T12:20:27;27.60;91.70
15386;DHT22;7791;47.246;9.648;2022-10-16T12:22:59;27.80;92.40
15386;DHT22;7791;47.246;9.648;2022-10-16T12:28:49;28.00;90.70
15386;DHT22;7791;47.246;9.648;2022-10-16T12:31:18;27.30;90.90
15386;DHT22;7791;47.246;9.648;2022-10-16T12:33:57;26.90;90.20
15386;DHT22;7791;47.246;9.648;2022-10-16T12:36:28;26.80;90.90
15386;DHT22;7791;47.246;9.648;2022-10-16T12:38:55;26.80;91.10
15386;DHT22;7791;47.246;9.648;2022-10-16T12:41:36;26.70;91.20
15386;DHT22;7791;47.246;9.648;2022-10-16T12:44:03;26.50;89.90
15386;DHT22;7791;47.246;9.648;2022-10-16T12:46:39;26.60;91.20
15386;DHT22;7791;47.246;9.648;2022-10-16T12:49:29;26.70;91.80
15386;DHT22;7791;47.246;9.648;2022-10-16T12:51:58;26.50;91.40
15386;DHT22;7791;47.246;9.648;2022-10-16T12:54:30;26.80;92.40
15386;DHT22;7791;47.246;9.648;2022-10-16T12:57:26;27.30;92.30
15386;DHT22;7791;47.246;9.648;2022-10-16T13:00:03;28.30;90.20
15386;DHT22;7791;47.246;9.648;2022-10-16T13:02:56;29.10;89.70
15386;DHT22;7791;47.246;9.648;2022-10-16T13:05:30;28.60;89.20
15386;DHT22;7791;47.246;9.648;2022-10-16T13:08:17;28.30;90.30
15386;DHT22;7791;47.246;9.648;2022-10-16T13:16:46;28.10;91.10
15386;DHT22;7791;47.246;9.648;2022-10-16T13:19:23;27.70;91.50
15386;DHT22;7791;47.246;9.648;2022-10-16T13:21:56;27.50;92.20
15386;DHT22;7791;47.246;9.648;2022-10-16T13:24:36;27.20;92.10
15386;DHT22;7791;47.246;9.648;2022-10-16T13:27:12;26.60;92.50
15386;DHT22;7791;47.246;9.648;2022-10-16T13:29:41;26.80;94.80
15386;DHT22;7791;47.246;9.648;2022-10-16T13:32:10;26.90;93.80
15386;DHT22;7791;47.246;9.648;2022-10-16T13:34:44;26.80;93.90
15386;DHT22;7791;47.246;9.648;2022-10-16T13:37:18;26.70;92.20
15386;DHT22;7791;47.246;9.648;2022-10-16T13:39:45;26.70;93.50
15386;DHT22;7791;47.246;9.648;2022-10-16T13:48:19;26.30;95.00
15386;DHT22;7791;47.246;9.648;2022-10-16T13:50:44;26.10;95.10
15386;DHT22;7791;47.246;9.648;2022-10-16T13:53:14;26.30;94.10
15386;DHT22;7791;47.246;9.648;2022-10-16T13:55:41;26.60;94.40
15386;DHT22;7791;47.246;9.648;2022-10-16T13:58:11;26.30;93.40
15386;DHT22;7791;47.246;9.648;2022-10-16T14:00:38;26.30;94.70
15386;DHT22;7791;47.246;9.648;2022-10-16T14:03:11;26.40;94.20
15386;DHT22;7791;47.246;9.648;2022-10-16T14:05:45;26.60;96.20
15386;DHT22;7791;47.246;9.648;2022-10-16T14:08:13;26.60;95.60
15386;DHT22;7791;47.246;9.648;2022-10-16T14:10:40;26.60;94.50
15386;DHT22;7791;47.246;9.648;2022-10-16T14:13:20;26.10;97.60
15386;DHT22;7791;47.246;9.648;2022-10-16T14:15:49;26.10;96.60
15386;DHT22;7791;47.246;9.648;2022-10-16T14:18:19;26.00;97.00
15386;DHT22;7791;47.246;9.648;2022-10-16T14:20:46;25.80;96.60
15386;DHT22;7791;47.246;9.648;2022-10-16T14:23:23;25.70;99.00
15386;DHT22;7791;47.246;9.648;2022-10-16T14:25:49;25.90;98.10
15386;DHT22;7791;47.246;9.648;2022-10-16T14:28:17;25.80;97.40
15386;DHT22;7791;47.246;9.648;2022-10-16T14:31:02;25.80;98.30
15386;DHT22;7791;47.246;9.648;2022-10-16T14:33:36;25.90;98.40
15386;DHT22;7791;47.246;9.648;2022-10-16T14:36:05;25.80;99.90
15386;DHT22;7791;47.246;9.648;2022-10-16T14:38:38;25.90;97.40
15386;DHT22;7791;47.246;9.648;2022-10-16T14:41:06;25.80;99.30
15386;DHT22;7791;47.246;9.648;2022-10-16T14:43:36;25.90;99.90
15386;DHT22;7791;47.246;9.648;2022-10-16T14:46:17;25.80;99.90
15386;DHT22;7791;47.246;9.648;2022-10-16T14:48:45;25.50;99.90
15386;DHT22;7791;47.246;9.648;2022-10-16T14:51:15;25.20;99.90
15386;DHT22;7791;47.246;9.648;2022-10-16T14:53:41;24.80;99.90
15386;DHT22;7791;47.246;9.648;2022-10-16T14:56:17;24.80;99.90
15386;DHT22;7791;47.246;9.648;2022-10-16T14:58:44;24.30;99.90
15386;DHT22;7791;47.246;9.648;2022-10-16T15:01:10;24.30;99.90
15386;DHT22;7791;47.246;9.648;2022-10-16T15:03:37;23.90;99.90
15386;DHT22;7791;47.246;9.648;2022-10-16T15:06:04;23.80;99.90
15386;DHT22;7791;47.246;9.648;2022-10-16T15:08:41;23.60;99.90
15386;DHT22;7791;47.246;9.648;2022-10-16T15:11:10;23.50;99.90
15386;DHT22;7791;47.246;9.648;2022-10-16T15:13:39;23.20;99.90
15386;DHT22;7791;47.246;9.648;2022-10-16T15:18:51;22.60;99.90
15386;DHT22;7791;47.246;9.648;2022-10-16T15:21:24;22.40;99.90
15386;DHT22;7791;47.246;9.648;2022-10-16T15:23:52;22.30;99.90
15386;DHT22;7791;47.246;9.648;2022-10-16T15:26:18;22.10;99.90
15386;DHT22;7791;47.246;9.648;2022-10-16T15:28:45;22.00;99.90
15386;DHT22;7791;47.246;9.648;2022-10-16T15:31:12;21.90;99.90
15386;DHT22;7791;47.246;9.648;2022-10-16T15:33:40;21.60;99.90
15386;DHT22;7791;47.246;9.648;2022-10-16T15:36:06;21.20;99.90
15386;DHT22;7791;47.246;9.648;2022-10-16T15:38:33;20.80;99.90
15386;DHT22;7791;47.246;9.648;2022-10-16T15:41:01;20.50;99.90
15386;DHT22;7791;47.246;9.648;2022-10-16T15:43:33;20.30;99.90
15386;DHT22;7791;47.246;9.648;2022-10-16T15:46:01;20.20;99.90
15386;DHT22;7791;47.246;9.648;2022-10-16T15:48:31;19.90;99.90
15386;DHT22;7791;47.246;9.648;2022-10-16T15:50:58;19.70;99.90
15386;DHT22;7791;47.246;9.648;2022-10-16T15:53:26;19.50;99.90
15386;DHT22;7791;47.246;9.648;2022-10-16T15:55:54;19.50;99.90
15386;DHT22;7791;47.246;9.648;2022-10-16T15:58:21;19.30;99.90
15386;DHT22;7791;47.246;9.648;2022-10-16T16:00:55;19.10;99.90
15386;DHT22;7791;47.246;9.648;2022-10-16T16:03:30;18.90;99.90
15386;DHT22;7791;47.246;9.648;2022-10-16T16:06:33;18.80;99.90
15386;DHT22;7791;47.246;9.648;2022-10-16T16:08:59;18.60;99.90
15386;DHT22;7791;47.246;9.648;2022-10-16T16:11:30;18.40;99.90
15386;DHT22;7791;47.246;9.648;2022-10-16T16:14:00;18.30;99.90
15386;DHT22;7791;47.246;9.648;2022-10-16T16:16:27;18.10;99.90
15386;DHT22;7791;47.246;9.648;2022-10-16T16:18:53;17.90;99.90
15386;DHT22;7791;47.246;9.648;2022-10-16T16:21:23;17.80;99.90
15386;DHT22;7791;47.246;9.648;2022-10-16T16:23:55;17.60;99.90
15386;DHT22;7791;47.246;9.648;2022-10-16T16:26:25;17.60;99.90
15386;DHT22;7791;47.246;9.648;2022-10-16T16:28:51;17.50;99.90
15386;DHT22;7791;47.246;9.648;2022-10-16T16:31:19;17.40;99.90
15386;DHT22;7791;47.246;9.648;2022-10-16T16:33:46;17.40;99.90
15386;DHT22;7791;47.246;9.648;2022-10-16T16:36:15;17.30;99.90
15386;DHT22;7791;47.246;9.648;2022-10-16T16:38:42;17.30;99.90
15386;DHT22;7791;47.246;9.648;2022-10-16T16:41:15;17.10;99.90
15386;DHT22;7791;47.246;9.648;2022-10-16T16:43:42;16.90;99.90
15386;DHT22;7791;47.246;9.648;2022-10-16T16:46:08;16.70;99.90
15386;DHT22;7791;47.246;9.648;2022-10-16T16:48:38;16.50;99.90
15386;DHT22;7791;47.246;9.648;2022-10-16T16:51:08;16.50;99.90
15386;DHT22;7791;47.246;9.648;2022-10-16T16:53:34;16.40;99.90
15386;DHT22;7791;47.246;9.648;2022-10-16T16:56:03;16.30;99.90
15386;DHT22;7791;47.246;9.648;2022-10-16T16:58:30;16.20;99.90
15386;DHT22;7791;47.246;9.648;2022-10-16T17:00:58;16.20;99.90
15386;DHT22;7791;47.246;9.648;2022-10-16T17:03:26;16.10;99.90
15386;DHT22;7791;47.246;9.648;2022-10-16T17:05:58;16.00;99.90
15386;DHT22;7791;47.246;9.648;2022-10-16T17:08:45;15.80;99.90
15386;DHT22;7791;47.246;9.648;2022-10-16T17:11:13;15.70;99.90
15386;DHT22;7791;47.246;9.648;2022-10-16T17:13:39;15.60;99.90
15386;DHT22;7791;47.246;9.648;2022-10-16T17:16:09;15.50;99.90
15386;DHT22;7791;47.246;9.648;2022-10-16T17:18:35;15.40;99.90
15386;DHT22;7791;47.246;9.648;2022-10-16T17:21:06;15.40;99.90